createdAt,value
2023-05-21T00:00:26.056Z,10.07
2023-05-21T00:02:52.781Z,10.07
2023-05-21T00:05:21.476Z,10.07
2023-05-21T00:07:48.232Z,10.08
2023-05-21T00:10:14.912Z,10.06
2023-05-21T00:12:42.051Z,10.03
2023-05-21T00:15:09.535Z,10.02
2023-05-21T00:17:36.949Z,10.01
2023-05-21T00:20:10.603Z,10.00
2023-05-21T00:22:37.309Z,9.98
2023-05-21T00:25:04.655Z,9.96
2023-05-21T00:27:31.281Z,9.93
2023-05-21T00:29:58.201Z,9.86
2023-05-21T00:32:25.051Z,9.83
2023-05-21T00:34:51.741Z,9.81
2023-05-21T00:37:19.093Z,9.73
2023-05-21T00:39:45.841Z,9.80
2023-05-21T00:42:12.475Z,9.81
2023-05-21T00:44:39.499Z,9.76
2023-05-21T00:47:06.677Z,9.81
2023-05-21T00:49:33.395Z,9.79
2023-05-21T00:52:01.744Z,9.81
2023-05-21T00:54:28.607Z,9.79
2023-05-21T00:56:56.181Z,9.77
2023-05-21T00:59:23.924Z,9.72
2023-05-21T01:01:56.109Z,9.72
2023-05-21T01:04:23.928Z,9.71
2023-05-21T01:06:53.587Z,9.68
2023-05-21T01:09:20.477Z,9.74
2023-05-21T01:11:49.936Z,9.69
2023-05-21T01:14:17.938Z,9.75
2023-05-21T01:16:46.978Z,9.75
2023-05-21T01:19:19.557Z,9.69
2023-05-21T01:21:51.103Z,9.68
2023-05-21T01:24:18.507Z,9.59
2023-05-21T01:26:46.692Z,9.66
2023-05-21T01:29:14.569Z,9.64
2023-05-21T01:32:03.031Z,9.55
2023-05-21T01:34:37.787Z,9.48
2023-05-21T01:37:14.985Z,9.41
2023-05-21T01:39:47.885Z,9.40
2023-05-21T01:42:19.849Z,9.40
2023-05-21T01:44:48.716Z,9.40
2023-05-21T01:47:17.980Z,9.36
2023-05-21T01:49:45.730Z,9.29
2023-05-21T01:52:12.994Z,9.24
2023-05-21T01:54:39.770Z,9.21
2023-05-21T01:57:06.734Z,9.16
2023-05-21T01:59:35.143Z,9.12
2023-05-21T02:02:01.786Z,9.13
2023-05-21T02:04:28.546Z,9.12
2023-05-21T02:06:55.724Z,9.09
2023-05-21T02:09:22.751Z,9.04
2023-05-21T02:11:49.419Z,8.98
2023-05-21T02:14:16.880Z,8.87
2023-05-21T02:16:43.665Z,8.75
2023-05-21T02:19:11.314Z,8.67
2023-05-21T02:21:38.166Z,8.63
2023-05-21T02:24:05.025Z,8.54
2023-05-21T02:26:32.122Z,8.43
2023-05-21T02:28:58.846Z,8.48
2023-05-21T02:31:25.622Z,8.51
2023-05-21T02:33:52.405Z,8.60
2023-05-21T02:36:19.252Z,8.56
2023-05-21T02:38:46.686Z,8.52
2023-05-21T02:41:13.404Z,8.55
2023-05-21T02:43:40.621Z,8.58
2023-05-21T02:46:07.998Z,8.59
2023-05-21T02:48:34.803Z,8.60
2023-05-21T02:51:01.486Z,8.59
2023-05-21T02:53:28.220Z,8.45
2023-05-21T02:55:54.993Z,8.59
2023-05-21T02:58:23.550Z,8.59
2023-05-21T03:00:50.248Z,8.52
2023-05-21T03:03:17.037Z,8.67
2023-05-21T03:05:45.868Z,8.79
2023-05-21T03:08:12.613Z,8.92
2023-05-21T03:10:39.435Z,9.02
2023-05-21T03:13:09.021Z,9.14
2023-05-21T03:15:39.488Z,9.15
2023-05-21T03:18:06.516Z,9.25
2023-05-21T03:20:34.424Z,9.26
2023-05-21T03:23:04.159Z,9.42
2023-05-21T03:25:30.818Z,9.52
2023-05-21T03:27:57.598Z,9.54
2023-05-21T03:30:24.609Z,9.54
2023-05-21T03:32:51.462Z,9.54
2023-05-21T03:35:18.279Z,9.55
2023-05-21T03:37:45.012Z,9.55
2023-05-21T03:40:12.137Z,9.54
2023-05-21T03:42:39.441Z,9.54
2023-05-21T03:45:07.012Z,9.52
2023-05-21T03:47:36.019Z,9.52
2023-05-21T03:50:03.371Z,9.59
2023-05-21T03:52:30.027Z,9.55
2023-05-21T03:54:56.696Z,9.67
2023-05-21T03:57:23.346Z,9.69
2023-05-21T03:59:50.111Z,9.66
2023-05-21T04:02:16.956Z,9.72
2023-05-21T04:04:44.562Z,9.78
2023-05-21T04:07:14.691Z,9.82
2023-05-21T04:09:42.167Z,9.90
2023-05-21T04:12:11.326Z,9.97
2023-05-21T04:14:38.112Z,10.06
2023-05-21T04:17:05.467Z,10.16
2023-05-21T04:19:32.752Z,10.24
2023-05-21T04:21:59.625Z,10.31
2023-05-21T04:24:26.289Z,10.38
2023-05-21T04:26:52.966Z,10.49
2023-05-21T04:29:21.390Z,10.66
2023-05-21T04:31:49.834Z,10.73
2023-05-21T04:34:19.965Z,10.87
2023-05-21T04:36:46.666Z,10.92
2023-05-21T04:39:14.607Z,11.03
2023-05-21T04:41:41.291Z,11.12
2023-05-21T04:44:08.475Z,11.17
2023-05-21T04:46:35.273Z,11.24
2023-05-21T04:49:05.707Z,11.31
2023-05-21T04:51:32.461Z,11.39
2023-05-21T04:53:59.752Z,11.52
2023-05-21T04:56:26.555Z,11.55
2023-05-21T04:58:54.356Z,11.64
2023-05-21T05:01:27.272Z,11.64
2023-05-21T05:03:54.292Z,11.66
2023-05-21T05:06:21.566Z,11.69
2023-05-21T05:08:49.437Z,11.75
2023-05-21T05:11:16.140Z,11.87
2023-05-21T05:13:42.965Z,12.38
2023-05-21T05:16:10.255Z,13.03
2023-05-21T05:18:36.879Z,13.53
2023-05-21T05:21:03.681Z,14.03
2023-05-21T05:23:30.699Z,14.26
2023-05-21T05:25:57.400Z,13.97
2023-05-21T05:28:24.094Z,14.82
2023-05-21T05:30:50.972Z,15.24
2023-05-21T05:33:17.766Z,15.58
2023-05-21T05:35:44.511Z,15.44
2023-05-21T05:38:11.240Z,15.65
2023-05-21T05:40:37.830Z,15.48
2023-05-21T05:43:04.500Z,15.36
2023-05-21T05:45:31.233Z,15.06
2023-05-21T05:47:57.960Z,14.72
2023-05-21T05:50:24.597Z,14.56
2023-05-21T05:52:51.587Z,14.57
2023-05-21T05:55:18.346Z,14.63
2023-05-21T05:57:45.469Z,14.91
2023-05-21T06:00:12.879Z,15.31
2023-05-21T06:02:40.456Z,15.90
2023-05-21T06:05:07.810Z,16.78
2023-05-21T06:07:34.504Z,16.63
2023-05-21T06:10:01.217Z,17.17
2023-05-21T06:12:27.985Z,17.53
2023-05-21T06:14:54.660Z,17.56
2023-05-21T06:17:21.595Z,18.21
2023-05-21T06:19:48.315Z,18.49
2023-05-21T06:22:15.078Z,18.00
2023-05-21T06:24:41.822Z,17.37
2023-05-21T06:27:08.601Z,17.05
2023-05-21T06:29:35.269Z,17.74
2023-05-21T06:32:02.088Z,18.12
2023-05-21T06:34:28.993Z,18.93
2023-05-21T06:36:55.705Z,19.14
2023-05-21T06:39:22.473Z,19.64
2023-05-21T06:41:49.151Z,19.57
2023-05-21T06:44:16.380Z,19.86
2023-05-21T06:46:43.300Z,19.57
2023-05-21T06:49:14.078Z,19.57
2023-05-21T06:51:41.034Z,19.44
2023-05-21T06:54:07.843Z,19.43
2023-05-21T06:56:34.491Z,19.60
2023-05-21T06:59:01.204Z,18.97
2023-05-21T07:01:27.993Z,18.56
2023-05-21T07:03:54.781Z,18.88
2023-05-21T07:06:22.306Z,19.51
2023-05-21T07:08:50.005Z,19.43
2023-05-21T07:11:16.595Z,19.40
2023-05-21T07:13:43.226Z,19.96
2023-05-21T07:16:10.637Z,20.27
2023-05-21T07:18:37.864Z,20.51
2023-05-21T07:21:04.725Z,21.10
2023-05-21T07:23:31.415Z,21.11
2023-05-21T07:25:59.002Z,21.43
2023-05-21T07:28:25.760Z,21.56
2023-05-21T07:30:52.564Z,21.81
2023-05-21T07:33:20.785Z,21.90
2023-05-21T07:35:47.526Z,21.59
2023-05-21T07:38:14.279Z,21.54
2023-05-21T07:40:40.978Z,22.07
2023-05-21T07:43:07.666Z,22.13
2023-05-21T07:45:34.506Z,22.54
2023-05-21T07:48:01.556Z,22.12
2023-05-21T07:50:28.346Z,22.20
2023-05-21T07:52:55.172Z,22.42
2023-05-21T07:55:22.034Z,23.01
2023-05-21T07:57:49.503Z,23.16
2023-05-21T08:00:16.291Z,23.44
2023-05-21T08:02:43.040Z,23.49
2023-05-21T08:05:10.650Z,23.92
2023-05-21T08:07:39.599Z,24.10
2023-05-21T08:10:06.945Z,23.92
2023-05-21T08:12:33.647Z,23.39
2023-05-21T08:15:00.617Z,22.95
2023-05-21T08:17:28.555Z,22.64
2023-05-21T08:19:55.489Z,22.03
2023-05-21T08:22:23.397Z,21.90
2023-05-21T08:24:50.434Z,21.73
2023-05-21T08:27:17.377Z,21.33
2023-05-21T08:29:44.094Z,21.38
2023-05-21T08:32:10.898Z,21.51
2023-05-21T08:34:37.705Z,21.92
2023-05-21T08:37:04.802Z,22.24
2023-05-21T08:39:31.550Z,22.23
2023-05-21T08:42:09.771Z,22.34
2023-05-21T08:44:42.216Z,22.40
2023-05-21T08:47:13.590Z,22.42
2023-05-21T08:49:43.107Z,22.47
2023-05-21T08:52:13.362Z,22.33
2023-05-21T08:54:40.648Z,22.51
2023-05-21T08:57:08.161Z,22.47
2023-05-21T08:59:37.388Z,22.44
2023-05-21T09:02:05.162Z,22.94
2023-05-21T09:04:32.238Z,23.33
2023-05-21T09:06:59.491Z,24.01
2023-05-21T09:09:34.188Z,24.33
2023-05-21T09:12:01.106Z,24.35
2023-05-21T09:14:28.469Z,24.71
2023-05-21T09:16:55.258Z,25.04
2023-05-21T09:19:22.487Z,25.31
2023-05-21T09:21:52.981Z,25.65
2023-05-21T09:24:22.965Z,25.75
2023-05-21T09:26:49.848Z,25.95
2023-05-21T09:29:16.529Z,25.75
2023-05-21T09:31:45.063Z,25.40
2023-05-21T09:34:13.541Z,25.81
2023-05-21T09:36:41.412Z,26.31
2023-05-21T09:39:08.649Z,26.00
2023-05-21T09:41:36.298Z,26.58
2023-05-21T09:44:03.131Z,26.92
2023-05-21T09:46:39.721Z,26.72
2023-05-21T09:49:06.655Z,26.36
2023-05-21T09:51:33.527Z,26.09
2023-05-21T09:54:00.271Z,26.16
2023-05-21T09:56:32.505Z,25.94
2023-05-21T09:59:06.886Z,25.20
2023-05-21T10:01:34.944Z,25.37
2023-05-21T10:04:06.663Z,25.61
2023-05-21T10:06:37.494Z,25.67
2023-05-21T10:09:10.585Z,25.59
2023-05-21T10:11:37.976Z,25.25
2023-05-21T10:14:07.527Z,25.92
2023-05-21T10:16:36.394Z,25.89
2023-05-21T10:19:04.486Z,26.25
2023-05-21T10:21:33.583Z,26.35
2023-05-21T10:24:02.684Z,26.38
2023-05-21T10:26:30.543Z,26.18
2023-05-21T10:29:00.397Z,25.89
2023-05-21T10:31:27.969Z,25.94
2023-05-21T10:33:57.653Z,25.68
2023-05-21T10:36:25.686Z,25.47
2023-05-21T10:38:53.320Z,25.60
2023-05-21T10:41:23.351Z,25.67
2023-05-21T10:44:00.971Z,25.29
2023-05-21T10:46:56.738Z,24.85
2023-05-21T10:49:43.298Z,24.67
2023-05-21T10:52:48.987Z,24.95
2023-05-21T10:55:43.806Z,24.88
2023-05-21T10:58:31.780Z,25.24
2023-05-21T11:01:00.110Z,25.17
2023-05-21T11:03:28.564Z,25.07
2023-05-21T11:05:56.641Z,25.66
2023-05-21T11:08:36.259Z,25.76
2023-05-21T11:11:03.881Z,26.31
2023-05-21T11:13:49.538Z,26.05
2023-05-21T11:16:17.227Z,26.39
2023-05-21T11:18:47.029Z,26.50
2023-05-21T11:21:21.127Z,26.34
2023-05-21T11:24:03.522Z,26.51
2023-05-21T11:26:55.316Z,26.42
2023-05-21T11:29:33.440Z,26.11
2023-05-21T11:32:05.636Z,25.86
2023-05-21T11:34:43.591Z,25.66
2023-05-21T11:37:20.873Z,25.34
2023-05-21T11:39:48.919Z,25.26
2023-05-21T11:42:35.150Z,25.19
2023-05-21T11:45:05.615Z,25.15
2023-05-21T11:47:32.922Z,25.32
2023-05-21T11:50:01.648Z,25.90
2023-05-21T11:52:30.479Z,25.71
2023-05-21T11:54:58.218Z,26.24
2023-05-21T11:57:30.605Z,26.44
2023-05-21T12:00:01.463Z,26.55
2023-05-21T12:02:32.557Z,27.29
2023-05-21T12:05:01.743Z,27.41
2023-05-21T12:07:31.913Z,26.75
2023-05-21T12:09:58.886Z,27.15
2023-05-21T12:12:33.047Z,27.13
2023-05-21T12:15:07.376Z,27.53
2023-05-21T12:17:34.132Z,27.99
2023-05-21T12:20:02.420Z,27.58
2023-05-21T12:22:30.415Z,27.41
2023-05-21T12:24:58.391Z,27.49
2023-05-21T12:27:25.254Z,27.28
2023-05-21T12:29:53.212Z,27.18
2023-05-21T12:32:21.421Z,27.04
2023-05-21T12:34:54.613Z,27.18
2023-05-21T12:37:22.467Z,27.26
2023-05-21T12:39:51.729Z,27.35
2023-05-21T12:42:35.037Z,27.16
2023-05-21T12:45:07.029Z,27.54
2023-05-21T12:47:35.191Z,27.95
2023-05-21T12:50:08.232Z,27.67
2023-05-21T12:52:34.935Z,27.30
2023-05-21T12:55:01.663Z,27.72
2023-05-21T12:57:36.133Z,27.55
2023-05-21T13:00:06.529Z,27.47
2023-05-21T13:02:35.609Z,27.58
2023-05-21T13:05:04.346Z,26.97
2023-05-21T13:07:32.836Z,26.76
2023-05-21T13:10:01.323Z,26.43
2023-05-21T13:12:29.923Z,26.10
2023-05-21T13:14:58.033Z,25.88
2023-05-21T13:17:27.731Z,26.06
2023-05-21T13:20:13.724Z,25.96
2023-05-21T13:22:49.626Z,26.12
2023-05-21T13:25:25.177Z,26.00
2023-05-21T13:27:53.206Z,26.58
2023-05-21T13:30:21.476Z,27.02
2023-05-21T13:32:48.912Z,27.01
2023-05-21T13:35:16.897Z,27.01
2023-05-21T13:37:44.552Z,27.19
2023-05-21T13:40:16.009Z,27.17
2023-05-21T13:42:45.528Z,27.02
2023-05-21T13:45:13.868Z,26.76
2023-05-21T13:47:41.780Z,26.56
2023-05-21T13:50:09.677Z,26.25
2023-05-21T13:52:38.501Z,26.26
2023-05-21T13:55:05.999Z,25.99
2023-05-21T13:57:32.854Z,25.83
2023-05-21T14:00:00.360Z,25.38
2023-05-21T14:02:27.242Z,25.18
2023-05-21T14:04:54.191Z,25.49
2023-05-21T14:07:22.179Z,25.46
2023-05-21T14:09:49.159Z,25.72
2023-05-21T14:12:17.037Z,25.97
2023-05-21T14:14:43.889Z,25.93
2023-05-21T14:17:10.823Z,26.10
2023-05-21T14:19:38.096Z,26.15
2023-05-21T14:22:05.583Z,26.30
2023-05-21T14:24:32.475Z,26.40
2023-05-21T14:26:59.138Z,26.14
2023-05-21T14:29:25.851Z,26.26
2023-05-21T14:31:52.723Z,25.86
2023-05-21T14:34:19.579Z,25.56
2023-05-21T14:36:46.255Z,25.72
2023-05-21T14:39:13.002Z,25.57
2023-05-21T14:41:40.016Z,25.50
2023-05-21T14:44:08.286Z,25.35
2023-05-21T14:46:35.554Z,25.48
2023-05-21T14:49:03.822Z,25.25
2023-05-21T14:51:31.688Z,25.41
2023-05-21T14:53:58.693Z,25.16
2023-05-21T14:56:27.875Z,25.01
2023-05-21T14:58:55.104Z,24.76
2023-05-21T15:01:22.002Z,24.72
2023-05-21T15:03:49.086Z,24.66
2023-05-21T15:06:16.167Z,24.56
2023-05-21T15:08:42.821Z,24.52
2023-05-21T15:11:10.688Z,24.47
2023-05-21T15:13:38.357Z,24.19
2023-05-21T15:16:05.511Z,24.13
2023-05-21T15:18:34.385Z,24.27
2023-05-21T15:21:01.335Z,24.19
2023-05-21T15:23:28.432Z,24.03
2023-05-21T15:25:55.550Z,24.01
2023-05-21T15:28:23.230Z,23.91
2023-05-21T15:30:50.505Z,23.87
2023-05-21T15:33:17.214Z,23.85
2023-05-21T15:35:44.359Z,23.75
2023-05-21T15:38:11.437Z,23.59
2023-05-21T15:40:43.453Z,23.65
2023-05-21T15:43:10.979Z,23.50
2023-05-21T15:45:38.698Z,23.41
2023-05-21T15:48:06.374Z,23.30
2023-05-21T15:50:35.434Z,23.32
2023-05-21T15:53:04.124Z,23.31
2023-05-21T15:55:34.100Z,23.30
2023-05-21T15:58:02.455Z,23.33
2023-05-21T16:00:29.449Z,23.28
2023-05-21T16:02:56.282Z,23.18
2023-05-21T16:05:23.128Z,23.15
2023-05-21T16:07:49.991Z,23.27
2023-05-21T16:10:16.797Z,23.24
2023-05-21T16:12:43.484Z,23.20
2023-05-21T16:15:10.972Z,23.03
2023-05-21T16:17:37.817Z,22.96
2023-05-21T16:20:05.099Z,22.99
2023-05-21T16:22:31.821Z,22.94
2023-05-21T16:24:58.489Z,22.71
2023-05-21T16:27:25.390Z,22.67
2023-05-21T16:29:52.177Z,22.67
2023-05-21T16:32:19.034Z,22.63
2023-05-21T16:34:45.858Z,22.59
2023-05-21T16:37:12.716Z,22.56
2023-05-21T16:39:39.595Z,22.52
2023-05-21T16:42:06.321Z,22.47
2023-05-21T16:44:33.075Z,22.51
2023-05-21T16:47:00.451Z,22.39
2023-05-21T16:49:27.731Z,22.27
2023-05-21T16:51:54.554Z,22.33
2023-05-21T16:54:21.505Z,22.09
2023-05-21T16:56:48.432Z,22.23
2023-05-21T16:59:16.627Z,22.20
2023-05-21T17:01:43.661Z,22.07
2023-05-21T17:04:11.226Z,21.86
2023-05-21T17:06:44.264Z,22.00
2023-05-21T17:09:14.274Z,21.82
2023-05-21T17:11:43.326Z,21.93
2023-05-21T17:14:13.510Z,21.88
2023-05-21T17:16:44.847Z,21.79
2023-05-21T17:19:11.712Z,21.77
2023-05-21T17:21:38.617Z,21.74
2023-05-21T17:24:07.625Z,21.70
2023-05-21T17:26:34.414Z,21.66
2023-05-21T17:29:01.311Z,21.58
2023-05-21T17:31:29.227Z,21.56
2023-05-21T17:33:57.696Z,21.53
2023-05-21T17:36:24.405Z,21.46
2023-05-21T17:38:51.299Z,21.34
2023-05-21T17:41:19.161Z,21.28
2023-05-21T17:43:46.213Z,21.31
2023-05-21T17:46:17.555Z,21.21
2023-05-21T17:48:46.715Z,21.12
2023-05-21T17:51:13.525Z,21.04
2023-05-21T17:53:41.076Z,20.85
2023-05-21T17:56:08.283Z,20.84
2023-05-21T17:58:35.048Z,20.84
2023-05-21T18:01:02.753Z,20.78
2023-05-21T18:03:30.245Z,20.66
2023-05-21T18:05:56.953Z,20.68
2023-05-21T18:08:23.706Z,20.62
2023-05-21T18:10:50.797Z,20.57
2023-05-21T18:13:17.490Z,20.52
2023-05-21T18:15:44.177Z,20.45
2023-05-21T18:18:19.871Z,20.38
2023-05-21T18:20:48.755Z,20.30
2023-05-21T18:23:15.885Z,20.24
2023-05-21T18:25:42.671Z,20.17
2023-05-21T18:28:10.332Z,20.06
2023-05-21T18:30:37.465Z,20.04
2023-05-21T18:33:04.495Z,19.86
2023-05-21T18:35:31.254Z,19.88
2023-05-21T18:37:58.088Z,19.79
2023-05-21T18:40:29.079Z,19.77
2023-05-21T18:42:57.411Z,19.69
2023-05-21T18:45:24.149Z,19.64
2023-05-21T18:47:51.044Z,19.60
2023-05-21T18:50:19.184Z,19.55
2023-05-21T18:52:46.741Z,19.50
2023-05-21T18:55:14.237Z,19.39
2023-05-21T18:57:41.014Z,19.39
2023-05-21T19:00:11.790Z,19.32
2023-05-21T19:02:42.113Z,19.24
2023-05-21T19:05:09.579Z,19.22
2023-05-21T19:07:41.162Z,19.17
2023-05-21T19:10:08.557Z,19.10
2023-05-21T19:12:36.353Z,18.91
2023-05-21T19:15:04.082Z,19.01
2023-05-21T19:17:30.866Z,18.96
2023-05-21T19:19:57.600Z,18.91
2023-05-21T19:22:25.564Z,18.84
2023-05-21T19:24:52.461Z,18.79
2023-05-21T19:27:19.531Z,18.66
2023-05-21T19:29:46.627Z,18.67
2023-05-21T19:32:14.793Z,18.59
2023-05-21T19:34:42.105Z,18.51
2023-05-21T19:37:08.773Z,18.43
2023-05-21T19:39:40.158Z,18.27
2023-05-21T19:42:07.743Z,18.21
2023-05-21T19:44:34.478Z,18.12
2023-05-21T19:47:02.138Z,18.01
2023-05-21T19:49:28.906Z,17.94
2023-05-21T19:51:56.026Z,17.88
2023-05-21T19:54:23.409Z,17.80
2023-05-21T19:56:51.610Z,17.73
2023-05-21T19:59:18.569Z,17.64
2023-05-21T20:01:46.668Z,17.59
2023-05-21T20:04:14.010Z,17.54
2023-05-21T20:06:40.989Z,17.55
2023-05-21T20:09:08.652Z,17.38
2023-05-21T20:11:36.214Z,17.36
2023-05-21T20:14:02.957Z,17.26
2023-05-21T20:16:30.079Z,17.16
2023-05-21T20:18:58.200Z,17.11
2023-05-21T20:21:25.243Z,17.02
2023-05-21T20:23:53.800Z,17.00
2023-05-21T20:26:21.852Z,16.97
2023-05-21T20:28:49.384Z,16.92
2023-05-21T20:31:16.207Z,16.86
2023-05-21T20:33:43.133Z,16.60
2023-05-21T20:36:10.579Z,16.84
2023-05-21T20:38:38.227Z,16.79
2023-05-21T20:41:05.238Z,16.75
2023-05-21T20:43:33.026Z,16.62
2023-05-21T20:45:59.986Z,16.67
2023-05-21T20:48:29.176Z,16.60
2023-05-21T20:50:57.579Z,16.69
2023-05-21T20:53:25.133Z,16.71
2023-05-21T20:55:54.663Z,16.62
2023-05-21T20:58:23.948Z,16.73
2023-05-21T21:00:50.873Z,16.74
2023-05-21T21:03:18.509Z,16.75
2023-05-21T21:05:45.499Z,16.72
2023-05-21T21:08:12.414Z,16.68
2023-05-21T21:10:41.352Z,16.65
2023-05-21T21:13:08.445Z,16.65
2023-05-21T21:15:35.526Z,16.62
2023-05-21T21:18:02.349Z,16.65
2023-05-21T21:20:28.966Z,16.67
2023-05-21T21:22:56.009Z,16.66
2023-05-21T21:25:22.705Z,16.59
2023-05-21T21:27:49.458Z,16.62
2023-05-21T21:30:16.267Z,16.57
2023-05-21T21:32:43.100Z,16.56
2023-05-21T21:35:10.884Z,16.51
2023-05-21T21:37:37.519Z,16.48
2023-05-21T21:40:04.669Z,16.50
2023-05-21T21:42:31.322Z,16.46
2023-05-21T21:44:58.033Z,16.46
2023-05-21T21:47:24.752Z,16.45
2023-05-21T21:49:51.553Z,16.42
2023-05-21T21:52:18.950Z,16.45
2023-05-21T21:54:45.805Z,16.37
2023-05-21T21:57:13.521Z,16.38
2023-05-21T21:59:40.617Z,16.31
2023-05-21T22:02:07.336Z,16.29
2023-05-21T22:04:34.038Z,16.25
2023-05-21T22:07:01.767Z,16.19
2023-05-21T22:09:28.821Z,16.11
2023-05-21T22:11:56.545Z,16.09
2023-05-21T22:14:23.336Z,16.08
2023-05-21T22:16:53.210Z,16.06
2023-05-21T22:19:22.215Z,16.03
2023-05-21T22:21:49.460Z,15.83
2023-05-21T22:24:30.715Z,15.96
2023-05-21T22:26:58.594Z,15.91
2023-05-21T22:29:25.580Z,15.88
2023-05-21T22:31:52.360Z,15.83
2023-05-21T22:34:19.060Z,15.83
2023-05-21T22:36:46.710Z,15.75
2023-05-21T22:39:13.528Z,15.80
2023-05-21T22:41:43.009Z,15.62
2023-05-21T22:44:09.902Z,15.76
2023-05-21T22:46:36.602Z,15.73
2023-05-21T22:49:03.457Z,15.70
2023-05-21T22:51:34.748Z,15.65
2023-05-21T22:54:01.901Z,15.58
2023-05-21T22:56:29.047Z,15.50
2023-05-21T22:58:56.621Z,15.53
2023-05-21T23:01:23.676Z,15.50
2023-05-21T23:03:51.701Z,15.46
2023-05-21T23:06:18.591Z,15.42
2023-05-21T23:08:45.366Z,15.38
2023-05-21T23:11:12.113Z,15.33
2023-05-21T23:13:38.810Z,15.25
2023-05-21T23:16:06.699Z,15.18
2023-05-21T23:18:35.100Z,15.12
2023-05-21T23:21:02.190Z,15.01
2023-05-21T23:23:29.100Z,14.93
2023-05-21T23:25:57.752Z,14.84
2023-05-21T23:28:25.542Z,14.74
2023-05-21T23:30:52.771Z,14.63
2023-05-21T23:33:19.604Z,14.54
2023-05-21T23:35:46.287Z,14.48
2023-05-21T23:38:13.171Z,14.41
2023-05-21T23:40:43.267Z,14.32
2023-05-21T23:43:10.361Z,14.24
2023-05-21T23:45:37.324Z,14.20
2023-05-21T23:48:04.343Z,14.29
2023-05-21T23:50:31.092Z,14.24
2023-05-21T23:52:58.759Z,14.07
2023-05-21T23:55:25.833Z,14.14
2023-05-21T23:57:52.702Z,14.12
